createdAt,value
2023-01-12T00:00:01.415Z,5.9
2023-01-12T00:15:01.452Z,5.7
2023-01-12T00:20:01.413Z,5.5
2023-01-12T00:25:01.217Z,5.5
2023-01-12T00:30:01.448Z,5.5
2023-01-12T00:35:01.177Z,5.5
2023-01-12T00:40:03.016Z,5.4
2023-01-12T00:45:01.460Z,5.3
2023-01-12T00:50:01.392Z,5.3
2023-01-12T00:55:01.185Z,5.4
2023-01-12T01:00:01.434Z,5.5
2023-01-12T01:05:01.190Z,5.5
2023-01-12T01:10:01.391Z,5.4
2023-01-12T01:15:01.396Z,5.3
2023-01-12T01:20:01.364Z,5.3
2023-01-12T01:25:01.176Z,5.3
2023-01-12T01:30:01.590Z,5.2
2023-01-12T01:35:00.902Z,5.2
2023-01-12T01:40:01.392Z,5.1
2023-01-12T01:45:01.452Z,5.2
2023-01-12T01:50:01.431Z,5.2
2023-01-12T01:55:01.174Z,5.2
2023-01-12T02:00:01.464Z,5.2
2023-01-12T02:05:01.132Z,5.1
2023-01-12T02:10:01.328Z,5.1
2023-01-12T02:15:01.555Z,5.1
2023-01-12T02:20:01.217Z,5.1
2023-01-12T02:25:00.839Z,5
2023-01-12T02:30:01.465Z,4.9
2023-01-12T02:35:01.227Z,4.9
2023-01-12T02:40:01.335Z,4.9
2023-01-12T02:45:01.154Z,5
2023-01-12T02:50:01.381Z,5
2023-01-12T02:55:00.944Z,4.9
2023-01-12T03:00:01.447Z,4.9
2023-01-12T03:05:01.186Z,4.9
2023-01-12T03:10:01.423Z,5
2023-01-12T03:15:01.410Z,5
2023-01-12T03:20:01.398Z,5
2023-01-12T03:25:01.217Z,5
2023-01-12T03:30:01.476Z,5
2023-01-12T03:35:01.233Z,5
2023-01-12T03:40:01.346Z,5
2023-01-12T03:45:01.411Z,4.9
2023-01-12T03:50:01.375Z,4.9
2023-01-12T03:55:01.152Z,4.9
2023-01-12T04:00:01.425Z,4.9
2023-01-12T04:05:01.218Z,4.9
2023-01-12T04:10:01.407Z,4.8
2023-01-12T04:15:01.472Z,4.8
2023-01-12T04:20:01.348Z,4.9
2023-01-12T04:25:01.127Z,4.8
2023-01-12T04:30:01.393Z,4.8
2023-01-12T04:35:01.192Z,4.8
2023-01-12T04:40:01.373Z,4.8
2023-01-12T04:45:01.370Z,4.8
2023-01-12T04:50:01.389Z,4.9
2023-01-12T04:55:01.178Z,4.9
2023-01-12T05:00:01.478Z,5
2023-01-12T05:05:01.224Z,5
2023-01-12T05:10:01.382Z,5
2023-01-12T05:15:01.403Z,5.1
2023-01-12T05:20:01.371Z,5
2023-01-12T05:25:01.142Z,5.1
2023-01-12T05:30:01.352Z,5.1
2023-01-12T05:35:01.135Z,5.1
2023-01-12T05:40:01.140Z,5
2023-01-12T05:45:01.428Z,5.1
2023-01-12T05:50:01.377Z,5.2
2023-01-12T05:55:01.177Z,5.4
2023-01-12T06:05:01.194Z,5.6
2023-01-12T06:10:01.399Z,5.6
2023-01-12T06:15:01.434Z,5.5
2023-01-12T06:20:01.375Z,5.5
2023-01-12T06:25:01.144Z,5.4
2023-01-12T06:30:01.391Z,5.4
2023-01-12T06:35:06.965Z,5.4
2023-01-12T06:40:01.494Z,5.4
2023-01-12T06:45:01.907Z,5.4
2023-01-12T06:50:01.833Z,5.4
2023-01-12T07:00:01.386Z,5.3
2023-01-12T07:05:01.147Z,5.3
2023-01-12T07:10:01.380Z,5.3
2023-01-12T07:15:01.365Z,5.2
2023-01-12T07:20:01.345Z,5.3
2023-01-12T07:25:01.158Z,5.3
2023-01-12T07:30:01.381Z,5.2
2023-01-12T07:35:01.171Z,5.3
2023-01-12T07:40:01.292Z,5.3
2023-01-12T07:45:01.361Z,5.3
2023-01-12T07:50:01.338Z,5.2
2023-01-12T07:55:01.179Z,5.3
2023-01-12T08:00:01.425Z,5.3
2023-01-12T08:05:01.144Z,5.3
2023-01-12T08:10:01.332Z,5.3
2023-01-12T08:15:01.390Z,5.3
2023-01-12T08:20:01.302Z,5.3
2023-01-12T08:25:01.195Z,5.4
2023-01-12T08:30:01.385Z,5.4
2023-01-12T08:35:01.377Z,5.4
2023-01-12T08:40:01.374Z,5.4
2023-01-12T08:45:01.163Z,5.4
2023-01-12T08:50:01.353Z,5.4
2023-01-12T08:55:01.177Z,5.4
2023-01-12T09:00:01.463Z,5.4
2023-01-12T09:05:01.184Z,5.4
2023-01-12T09:10:01.369Z,5.4
2023-01-12T09:15:01.359Z,5.4
2023-01-12T09:20:01.292Z,5.3
2023-01-12T09:25:01.147Z,5.4
2023-01-12T09:30:01.368Z,5.4
2023-01-12T09:35:01.124Z,5.4
2023-01-12T09:40:01.329Z,5.4
2023-01-12T09:45:01.370Z,5.4
2023-01-12T09:50:08.985Z,5.4
2023-01-12T09:55:01.157Z,5.4
2023-01-12T10:00:01.483Z,5.4
2023-01-12T10:05:01.204Z,5.4
2023-01-12T10:10:01.428Z,5.4
2023-01-12T10:15:01.458Z,5.5
2023-01-12T10:20:01.295Z,5.5
2023-01-12T10:25:01.241Z,5.4
2023-01-12T10:30:01.362Z,5.5
2023-01-12T10:35:00.920Z,5.4
2023-01-12T10:40:01.314Z,5.4
2023-01-12T10:45:01.438Z,5.4
2023-01-12T10:50:01.311Z,5.5
2023-01-12T10:55:01.144Z,5.3
2023-01-12T11:00:01.379Z,5.4
2023-01-12T11:05:01.134Z,5.4
2023-01-12T11:10:01.325Z,5.4
2023-01-12T11:15:01.364Z,5.4
2023-01-12T11:20:01.324Z,5.4
2023-01-12T11:25:01.136Z,5.4
2023-01-12T11:30:01.356Z,5.4
2023-01-12T11:35:02.276Z,5.5
2023-01-12T11:40:01.330Z,5.5
2023-01-12T11:45:01.408Z,5.6
2023-01-12T11:50:01.288Z,5.6
2023-01-12T11:55:01.136Z,5.6
2023-01-12T12:00:01.408Z,5.5
2023-01-12T12:05:01.205Z,5.5
2023-01-12T12:10:01.118Z,5.6
2023-01-12T12:15:01.359Z,5.6
2023-01-12T12:20:01.157Z,5.6
2023-01-12T12:25:01.169Z,5.6
2023-01-12T12:30:01.327Z,5.6
2023-01-12T12:35:01.189Z,5.7
2023-01-12T12:40:01.393Z,5.7
2023-01-12T12:45:01.382Z,5.7
2023-01-12T12:50:01.292Z,5.7
2023-01-12T12:55:01.211Z,5.7
2023-01-12T13:00:01.389Z,5.7
2023-01-12T13:05:03.157Z,5.7
2023-01-12T13:10:01.336Z,5.7
2023-01-12T13:15:01.420Z,5.7
2023-01-12T13:20:04.401Z,5.7
2023-01-12T13:25:01.212Z,5.7
2023-01-12T13:30:01.384Z,5.7
2023-01-12T13:35:01.202Z,5.7
2023-01-12T13:40:01.642Z,5.7
2023-01-12T13:45:01.281Z,5.7
2023-01-12T13:50:01.321Z,5.7
2023-01-12T13:55:01.159Z,5.7
2023-01-12T14:00:01.397Z,5.7
2023-01-12T14:05:01.117Z,5.7
2023-01-12T14:10:01.406Z,5.7
2023-01-12T14:15:01.342Z,5.7
2023-01-12T14:20:01.338Z,5.7
2023-01-12T14:25:01.191Z,5.7
2023-01-12T14:30:01.396Z,5.7
2023-01-12T14:35:01.137Z,5.8
2023-01-12T14:40:01.289Z,5.7
2023-01-12T14:45:01.504Z,5.7
2023-01-12T14:50:01.372Z,5.6
2023-01-12T14:55:01.118Z,5.7
2023-01-12T15:00:01.370Z,5.7
2023-01-12T15:05:01.167Z,5.7
2023-01-12T15:10:01.320Z,5.6
2023-01-12T15:15:01.195Z,5.7
2023-01-12T15:20:01.370Z,5.7
2023-01-12T15:25:01.315Z,5.7
2023-01-12T15:30:01.330Z,5.6
2023-01-12T15:35:01.140Z,5.6
2023-01-12T15:40:01.308Z,5.6
2023-01-12T15:45:01.410Z,5.6
2023-01-12T15:50:01.380Z,5.6
2023-01-12T15:55:01.173Z,5.6
2023-01-12T16:00:01.146Z,5.5
2023-01-12T16:05:01.432Z,5.6
2023-01-12T16:10:01.288Z,5.5
2023-01-12T16:15:01.398Z,5.5
2023-01-12T16:20:01.356Z,5.5
2023-01-12T16:25:01.190Z,5.5
2023-01-12T16:30:01.446Z,5.5
2023-01-12T16:35:01.141Z,5.5
2023-01-12T16:40:01.398Z,5.5
2023-01-12T16:45:01.371Z,5.6
2023-01-12T16:50:01.340Z,5.5
2023-01-12T16:55:01.133Z,5.6
2023-01-12T17:00:01.488Z,5.5
2023-01-12T17:05:01.162Z,5.5
2023-01-12T17:10:01.336Z,5.5
2023-01-12T17:15:01.319Z,5.6
2023-01-12T17:20:01.426Z,5.6
2023-01-12T17:25:01.150Z,5.7
2023-01-12T17:30:01.312Z,5.7
2023-01-12T17:35:01.115Z,5.7
2023-01-12T17:40:01.323Z,5.7
2023-01-12T17:45:01.381Z,5.7
2023-01-12T17:50:01.468Z,5.6
2023-01-12T17:55:01.208Z,5.7
2023-01-12T18:00:01.429Z,5.7
2023-01-12T18:05:01.219Z,5.6
2023-01-12T18:10:01.371Z,5.7
2023-01-12T18:15:01.426Z,5.7
2023-01-12T18:20:01.345Z,5.6
2023-01-12T18:25:01.166Z,5.6
2023-01-12T18:30:01.403Z,5.6
2023-01-12T18:35:01.138Z,5.6
2023-01-12T18:40:01.381Z,5.5
2023-01-12T18:45:01.353Z,5.5
2023-01-12T18:50:01.355Z,5.5
2023-01-12T18:55:01.158Z,5.5
2023-01-12T19:00:01.575Z,5.5
2023-01-12T19:05:01.146Z,5.5
2023-01-12T19:10:01.346Z,5.5
2023-01-12T19:15:01.345Z,5.5
2023-01-12T19:20:01.332Z,5.4
2023-01-12T19:25:01.190Z,5.4
2023-01-12T19:30:01.329Z,5.4
2023-01-12T19:35:10.093Z,5.4
2023-01-12T19:40:01.443Z,5.4
2023-01-12T19:45:01.452Z,5.3
2023-01-12T19:50:01.419Z,5.4
2023-01-12T19:55:01.177Z,5.4
2023-01-12T20:00:01.394Z,5.4
2023-01-12T20:05:01.173Z,5.4
2023-01-12T20:10:01.341Z,5.3
2023-01-12T20:15:01.169Z,5.3
2023-01-12T20:20:01.311Z,5.3
2023-01-12T20:25:01.376Z,5.3
2023-01-12T20:30:01.599Z,5.3
2023-01-12T20:35:01.317Z,5.3
2023-01-12T20:40:01.305Z,5.3
2023-01-12T20:45:01.314Z,5.2
2023-01-12T20:50:01.395Z,5.2
2023-01-12T20:55:01.188Z,5.2
2023-01-12T21:00:01.360Z,5.2
2023-01-12T21:05:01.155Z,5.2
2023-01-12T21:10:01.402Z,5.2
2023-01-12T21:15:01.406Z,5.2
2023-01-12T21:20:01.134Z,5.1
2023-01-12T21:25:01.179Z,5.2
2023-01-12T21:30:01.398Z,5.2
2023-01-12T21:35:01.182Z,5.2
2023-01-12T21:40:01.412Z,5.2
2023-01-12T21:45:01.429Z,5.3
2023-01-12T21:50:01.146Z,5.3
2023-01-12T21:55:01.205Z,5.2
2023-01-12T22:00:01.394Z,5.2
2023-01-12T22:05:01.174Z,5.2
2023-01-12T22:10:01.412Z,5.2
2023-01-12T22:15:01.404Z,5.2
2023-01-12T22:20:01.456Z,5.2
2023-01-12T22:25:01.150Z,5.1
2023-01-12T22:30:01.440Z,5.1
2023-01-12T22:35:01.191Z,5.1
2023-01-12T22:40:01.406Z,5
2023-01-12T22:45:01.406Z,5
2023-01-12T22:50:01.488Z,5
2023-01-12T22:55:01.189Z,5
2023-01-12T23:00:01.470Z,5
2023-01-12T23:05:01.210Z,5
2023-01-12T23:10:01.374Z,5
2023-01-12T23:15:01.503Z,4.9
2023-01-12T23:20:01.377Z,4.9
2023-01-12T23:25:01.176Z,4.8
2023-01-12T23:30:01.446Z,4.8
2023-01-12T23:35:01.166Z,4.9
2023-01-12T23:40:01.440Z,4.9
2023-01-12T23:45:01.547Z,4.9
2023-01-12T23:50:01.408Z,4.9
2023-01-12T23:55:01.205Z,4.9
